createdAt,value
2022-08-02T00:00:40.350Z,67.62
2022-08-02T00:03:08.211Z,67.61
2022-08-02T00:05:37.420Z,69.17
2022-08-02T00:08:06.086Z,68.28
2022-08-02T00:10:33.920Z,68.25
2022-08-02T00:13:01.874Z,69.22
2022-08-02T00:15:29.816Z,68.33
2022-08-02T00:17:57.611Z,68.82
2022-08-02T00:20:25.507Z,68.38
2022-08-02T00:22:54.690Z,68.80
2022-08-02T00:25:22.623Z,70.79
2022-08-02T00:27:50.455Z,70.90
2022-08-02T00:30:18.287Z,69.88
2022-08-02T00:32:46.074Z,69.23
2022-08-02T00:35:13.968Z,69.95
2022-08-02T00:37:42.492Z,70.47
2022-08-02T00:40:13.064Z,70.28
2022-08-02T00:42:42.088Z,69.95
2022-08-02T00:45:10.796Z,69.80
2022-08-02T00:47:38.667Z,69.54
2022-08-02T00:50:08.119Z,70.94
2022-08-02T00:52:35.934Z,70.39
2022-08-02T00:55:03.982Z,70.29
2022-08-02T00:57:33.087Z,68.98
2022-08-02T01:00:00.920Z,67.92
2022-08-02T01:02:28.944Z,66.46
2022-08-02T01:04:56.756Z,66.69
2022-08-02T01:07:24.776Z,68.62
2022-08-02T01:09:52.794Z,66.63
2022-08-02T01:12:20.738Z,63.81
2022-08-02T01:14:54.397Z,63.14
2022-08-02T01:17:33.322Z,63.96
2022-08-02T01:20:19.777Z,62.97
2022-08-02T01:23:14.473Z,63.07
2022-08-02T01:26:10.453Z,64.36
2022-08-02T01:28:47.967Z,65.84
2022-08-02T01:31:23.196Z,65.03
2022-08-02T01:34:14.087Z,63.75
2022-08-02T01:36:49.334Z,63.35
2022-08-02T01:39:27.746Z,63.35
2022-08-02T01:42:03.013Z,62.72
2022-08-02T01:44:38.906Z,63.92
2022-08-02T01:47:17.875Z,62.54
2022-08-02T01:49:48.938Z,63.98
2022-08-02T01:52:26.080Z,64.33
2022-08-02T01:55:07.355Z,64.16
2022-08-02T01:57:42.364Z,62.02
2022-08-02T02:00:13.726Z,62.25
2022-08-02T02:02:47.478Z,61.66
2022-08-02T02:05:20.298Z,60.21
2022-08-02T02:07:54.701Z,61.37
2022-08-02T02:10:28.814Z,62.08
2022-08-02T02:13:02.861Z,62.17
2022-08-02T02:15:35.158Z,61.17
2022-08-02T02:18:12.475Z,62.15
2022-08-02T02:20:42.369Z,60.32
2022-08-02T02:23:10.913Z,60.76
2022-08-02T02:25:46.530Z,59.32
2022-08-02T02:28:24.162Z,59.79
2022-08-02T02:31:00.177Z,60.54
2022-08-02T02:33:31.671Z,62.65
2022-08-02T02:36:01.482Z,59.96
2022-08-02T02:38:33.853Z,60.32
2022-08-02T02:41:05.225Z,59.39
2022-08-02T02:43:36.215Z,61.47
2022-08-02T02:46:08.696Z,61.72
2022-08-02T02:48:38.746Z,62.94
2022-08-02T02:51:08.263Z,62.21
2022-08-02T02:54:30.343Z,62.96
2022-08-02T02:56:33.126Z,62.98
2022-08-02T02:59:01.744Z,64.59
2022-08-02T03:01:55.056Z,65.01
2022-08-02T03:04:21.909Z,64.00
2022-08-02T03:06:49.894Z,64.74
2022-08-02T03:09:17.740Z,64.89
2022-08-02T03:11:45.894Z,66.14
2022-08-02T03:14:14.445Z,66.49
2022-08-02T03:16:50.173Z,70.13
2022-08-02T03:19:19.336Z,71.86
2022-08-02T03:21:57.325Z,71.49
2022-08-02T03:24:27.829Z,70.92
2022-08-02T03:26:56.630Z,69.78
2022-08-02T03:29:24.617Z,69.80
2022-08-02T03:31:54.474Z,70.28
2022-08-02T03:34:23.198Z,70.67
2022-08-02T03:36:57.085Z,71.20
2022-08-02T03:39:27.078Z,70.02
2022-08-02T03:41:56.270Z,71.11
2022-08-02T03:44:26.375Z,70.29
2022-08-02T03:46:56.260Z,70.43
2022-08-02T03:49:25.493Z,69.79
2022-08-02T03:51:54.777Z,69.24
2022-08-02T03:54:23.482Z,69.42
2022-08-02T03:57:03.606Z,69.07
2022-08-02T03:59:42.845Z,68.88
2022-08-02T04:02:13.737Z,67.98
2022-08-02T04:04:41.941Z,69.11
2022-08-02T04:07:09.884Z,67.80
2022-08-02T04:09:37.690Z,68.63
2022-08-02T04:12:06.584Z,69.60
2022-08-02T04:14:36.646Z,70.60
2022-08-02T04:17:09.632Z,70.17
2022-08-02T04:19:44.877Z,69.24
2022-08-02T04:22:19.401Z,69.51
2022-08-02T04:24:55.289Z,69.55
2022-08-02T04:27:50.046Z,69.34
2022-08-02T04:30:14.924Z,69.92
2022-08-02T04:32:45.049Z,71.31
2022-08-02T04:35:20.216Z,69.10
2022-08-02T04:38:05.766Z,67.73
2022-08-02T04:40:38.804Z,68.85
2022-08-02T04:43:06.765Z,65.91
2022-08-02T04:45:35.122Z,65.30
2022-08-02T04:48:05.242Z,66.71
2022-08-02T04:50:35.714Z,66.21
2022-08-02T04:53:04.229Z,65.71
2022-08-02T04:55:32.174Z,64.43
2022-08-02T04:58:03.798Z,65.33
2022-08-02T05:00:35.195Z,65.09
2022-08-02T05:03:03.186Z,64.83
2022-08-02T05:05:31.038Z,64.04
2022-08-02T05:08:00.810Z,63.51
2022-08-02T05:10:28.685Z,63.46
2022-08-02T05:12:56.637Z,63.72
2022-08-02T05:15:24.613Z,63.34
2022-08-02T05:17:52.716Z,65.49
2022-08-02T05:20:21.049Z,64.11
2022-08-02T05:22:48.882Z,63.44
2022-08-02T05:25:18.025Z,63.57
2022-08-02T05:27:45.834Z,62.88
2022-08-02T05:30:13.881Z,61.62
2022-08-02T05:32:47.715Z,60.87
2022-08-02T05:35:19.360Z,61.14
2022-08-02T05:37:48.143Z,60.71
2022-08-02T05:40:18.333Z,60.84
2022-08-02T05:42:53.714Z,60.82
2022-08-02T05:45:21.733Z,58.64
2022-08-02T05:47:49.531Z,57.74
2022-08-02T05:50:17.784Z,56.44
2022-08-02T05:52:57.713Z,55.78
2022-08-02T05:55:34.101Z,55.25
2022-08-02T05:58:14.070Z,56.36
2022-08-02T06:00:43.047Z,57.15
2022-08-02T06:03:23.190Z,56.52
2022-08-02T06:06:01.338Z,55.74
2022-08-02T06:08:39.365Z,55.68
2022-08-02T06:11:14.048Z,53.43
2022-08-02T06:13:43.316Z,53.88
2022-08-02T06:16:14.153Z,53.79
2022-08-02T06:18:44.353Z,53.86
2022-08-02T06:22:32.484Z,53.62
2022-08-02T06:24:06.328Z,54.16
2022-08-02T06:26:37.690Z,52.98
2022-08-02T06:29:06.280Z,53.03
2022-08-02T06:31:34.156Z,52.76
2022-08-02T06:34:01.958Z,53.31
2022-08-02T06:36:43.087Z,53.18
2022-08-02T06:39:21.032Z,51.93
2022-08-02T06:41:53.257Z,50.71
2022-08-02T06:44:45.935Z,50.82
2022-08-02T06:47:10.793Z,50.65
2022-08-02T06:49:52.599Z,50.96
2022-08-02T06:52:28.168Z,50.92
2022-08-02T06:54:58.527Z,51.31
2022-08-02T06:57:28.342Z,50.15
2022-08-02T06:59:57.191Z,50.31
2022-08-02T07:02:25.449Z,51.52
2022-08-02T07:04:53.515Z,50.86
2022-08-02T07:07:21.446Z,51.14
2022-08-02T07:09:57.266Z,50.16
2022-08-02T07:12:31.866Z,51.12
2022-08-02T07:15:00.783Z,52.70
2022-08-02T07:17:29.302Z,52.95
2022-08-02T07:19:57.668Z,53.08
2022-08-02T07:22:27.152Z,51.70
2022-08-02T07:24:57.717Z,51.57
2022-08-02T07:27:26.389Z,52.02
2022-08-02T07:29:56.730Z,51.68
2022-08-02T07:32:27.165Z,51.00
2022-08-02T07:34:56.089Z,50.91
2022-08-02T07:37:53.527Z,52.16
2022-08-02T07:40:19.848Z,52.60
2022-08-02T07:42:49.797Z,51.72
2022-08-02T07:45:19.033Z,50.72
2022-08-02T07:47:47.863Z,50.10
2022-08-02T07:50:19.042Z,49.67
2022-08-02T07:52:48.370Z,49.56
2022-08-02T07:55:17.884Z,49.57
2022-08-02T07:57:47.056Z,48.91
2022-08-02T08:00:18.676Z,50.00
2022-08-02T08:02:47.973Z,50.29
2022-08-02T08:05:16.229Z,50.02
2022-08-02T08:07:44.216Z,50.74
2022-08-02T08:10:12.200Z,56.47
2022-08-02T08:12:40.102Z,53.59
2022-08-02T08:15:09.267Z,52.47
2022-08-02T08:17:39.053Z,56.02
2022-08-02T08:20:09.426Z,54.64
2022-08-02T08:22:39.585Z,53.29
2022-08-02T08:25:08.208Z,49.95
2022-08-02T08:27:36.063Z,54.47
2022-08-02T08:30:05.062Z,54.49
2022-08-02T08:32:32.856Z,53.39
2022-08-02T08:35:03.626Z,50.98
2022-08-02T08:37:35.617Z,53.50
2022-08-02T08:40:05.817Z,50.35
2022-08-02T08:42:36.721Z,51.17
2022-08-02T08:45:05.949Z,52.53
2022-08-02T08:47:37.497Z,52.80
2022-08-02T08:50:17.910Z,52.06
2022-08-02T08:52:53.434Z,52.38
2022-08-02T08:55:24.901Z,49.01
2022-08-02T08:57:55.479Z,51.93
2022-08-02T09:00:23.317Z,50.49
2022-08-02T09:02:51.291Z,51.50
2022-08-02T09:05:20.579Z,52.27
2022-08-02T09:07:49.780Z,49.07
2022-08-02T09:10:36.098Z,50.67
2022-08-02T09:13:37.984Z,51.52
2022-08-02T09:16:10.922Z,50.58
2022-08-02T09:18:45.013Z,48.90
2022-08-02T09:21:17.535Z,48.68
2022-08-02T09:23:47.765Z,51.27
2022-08-02T09:26:19.085Z,50.03
2022-08-02T09:28:50.323Z,49.37
2022-08-02T09:31:20.956Z,48.17
2022-08-02T09:33:54.938Z,49.05
2022-08-02T09:36:25.905Z,49.99
2022-08-02T09:38:58.010Z,50.33
2022-08-02T09:41:28.476Z,50.87
2022-08-02T09:44:04.285Z,49.89
2022-08-02T09:46:38.708Z,49.99
2022-08-02T09:49:10.534Z,48.63
2022-08-02T09:51:49.265Z,49.76
2022-08-02T09:54:20.195Z,49.67
2022-08-02T09:56:51.299Z,49.31
2022-08-02T09:59:22.315Z,48.44
2022-08-02T10:01:58.957Z,47.97
2022-08-02T10:04:34.462Z,48.51
2022-08-02T10:07:23.110Z,47.06
2022-08-02T10:09:52.581Z,47.86
2022-08-02T10:12:22.327Z,49.34
2022-08-02T10:14:51.908Z,47.25
2022-08-02T10:17:20.573Z,48.60
2022-08-02T10:20:02.938Z,48.32
2022-08-02T10:22:36.369Z,49.01
2022-08-02T10:25:06.358Z,47.52
2022-08-02T10:28:03.740Z,46.89
2022-08-02T10:30:27.948Z,48.28
2022-08-02T10:32:58.699Z,48.74
2022-08-02T10:35:27.646Z,48.43
2022-08-02T10:38:03.738Z,48.75
2022-08-02T10:40:45.766Z,48.24
2022-08-02T10:43:14.882Z,49.48
2022-08-02T10:45:42.693Z,50.55
2022-08-02T10:48:14.550Z,48.49
2022-08-02T10:50:55.704Z,47.24
2022-08-02T10:53:28.228Z,47.90
2022-08-02T10:55:59.518Z,48.13
2022-08-02T10:58:30.452Z,46.97
2022-08-02T11:00:59.930Z,49.52
2022-08-02T11:03:41.970Z,48.43
2022-08-02T11:06:25.493Z,48.70
2022-08-02T11:09:33.334Z,49.09
2022-08-02T11:12:05.993Z,49.85
2022-08-02T11:14:36.307Z,46.73
2022-08-02T11:17:11.182Z,48.28
2022-08-02T11:20:17.776Z,47.89
2022-08-02T11:22:47.750Z,49.15
2022-08-02T11:26:02.593Z,47.41
2022-08-02T11:28:26.221Z,48.62
2022-08-02T11:31:02.974Z,49.72
2022-08-02T11:33:36.863Z,47.64
2022-08-02T11:36:07.588Z,47.33
2022-08-02T11:38:35.704Z,48.67
2022-08-02T11:41:06.010Z,46.02
2022-08-02T11:43:34.723Z,46.28
2022-08-02T11:46:04.352Z,48.74
2022-08-02T11:48:34.312Z,46.73
2022-08-02T11:51:10.646Z,46.76
2022-08-02T11:53:47.989Z,45.63
2022-08-02T11:56:25.196Z,44.06
2022-08-02T11:59:04.971Z,45.06
2022-08-02T12:01:35.220Z,44.36
2022-08-02T12:04:13.260Z,43.26
2022-08-02T12:06:41.224Z,44.70
2022-08-02T12:09:18.874Z,43.80
2022-08-02T12:11:50.784Z,44.01
2022-08-02T12:14:19.471Z,42.78
2022-08-02T12:17:08.502Z,43.69
2022-08-02T12:19:38.215Z,42.51
2022-08-02T12:22:17.570Z,42.97
2022-08-02T12:24:49.115Z,43.21
2022-08-02T12:27:36.175Z,44.73
2022-08-02T12:30:09.074Z,45.90
2022-08-02T12:32:38.062Z,45.17
2022-08-02T12:35:11.316Z,44.51
2022-08-02T12:37:43.217Z,44.15
2022-08-02T12:40:26.471Z,43.63
2022-08-02T12:42:59.010Z,44.07
2022-08-02T12:45:39.986Z,43.49
2022-08-02T12:48:10.338Z,42.71
2022-08-02T12:50:39.915Z,42.47
2022-08-02T12:53:10.908Z,42.49
2022-08-02T12:56:02.024Z,42.41
2022-08-02T12:58:49.188Z,41.85
2022-08-02T13:01:23.210Z,42.31
2022-08-02T13:04:11.578Z,42.93
2022-08-02T13:06:46.615Z,42.63
2022-08-02T13:09:17.048Z,42.16
2022-08-02T13:11:45.549Z,41.61
2022-08-02T13:14:16.400Z,42.07
2022-08-02T13:16:46.707Z,41.06
2022-08-02T13:19:16.198Z,40.69
2022-08-02T13:22:01.526Z,40.40
2022-08-02T13:24:40.569Z,40.79
2022-08-02T13:27:25.956Z,40.90
2022-08-02T13:29:57.118Z,40.29
2022-08-02T13:32:26.412Z,39.90
2022-08-02T13:34:54.245Z,40.77
2022-08-02T13:37:24.507Z,39.56
2022-08-02T13:40:18.870Z,40.13
2022-08-02T13:42:40.667Z,39.99
2022-08-02T13:45:16.331Z,39.46
2022-08-02T13:48:03.388Z,38.93
2022-08-02T13:50:33.295Z,39.67
2022-08-02T13:53:01.117Z,40.96
2022-08-02T13:55:29.108Z,40.95
2022-08-02T13:57:57.065Z,40.47
2022-08-02T14:00:35.828Z,40.24
2022-08-02T14:03:06.772Z,40.86
2022-08-02T14:05:46.972Z,40.59
2022-08-02T14:08:17.862Z,41.17
2022-08-02T14:10:47.020Z,42.09
2022-08-02T14:13:15.176Z,41.84
2022-08-02T14:15:45.106Z,41.37
2022-08-02T14:18:14.708Z,41.56
2022-08-02T14:20:43.861Z,41.40
2022-08-02T14:23:12.004Z,41.00
2022-08-02T14:25:40.234Z,40.42
2022-08-02T14:28:08.299Z,40.35
2022-08-02T14:30:36.534Z,40.29
2022-08-02T14:33:05.671Z,40.65
2022-08-02T14:35:33.668Z,40.66
2022-08-02T14:38:01.617Z,39.29
2022-08-02T14:40:31.695Z,38.84
2022-08-02T14:43:00.857Z,38.78
2022-08-02T14:45:40.517Z,39.46
2022-08-02T14:48:11.990Z,39.84
2022-08-02T14:50:39.978Z,39.87
2022-08-02T14:53:12.743Z,39.97
2022-08-02T14:55:42.772Z,39.82
2022-08-02T14:58:10.970Z,39.93
2022-08-02T15:00:41.307Z,39.72
2022-08-02T15:03:11.337Z,39.70
2022-08-02T15:05:39.624Z,39.64
2022-08-02T15:08:08.042Z,40.04
2022-08-02T15:10:35.891Z,39.59
2022-08-02T15:13:03.706Z,39.71
2022-08-02T15:15:31.542Z,39.44
2022-08-02T15:18:00.111Z,39.56
2022-08-02T15:20:29.819Z,40.09
2022-08-02T15:23:00.541Z,40.17
2022-08-02T15:25:28.486Z,39.14
2022-08-02T15:27:56.315Z,39.99
2022-08-02T15:30:24.368Z,40.04
2022-08-02T15:32:53.063Z,41.80
2022-08-02T15:35:21.568Z,40.89
2022-08-02T15:37:50.779Z,40.62
2022-08-02T15:40:18.790Z,40.78
2022-08-02T15:42:46.609Z,40.83
2022-08-02T15:45:15.729Z,40.84
2022-08-02T15:47:48.133Z,40.45
2022-08-02T15:50:18.906Z,40.19
2022-08-02T15:52:46.768Z,40.70
2022-08-02T15:55:15.968Z,40.19
2022-08-02T15:57:43.924Z,40.31
2022-08-02T16:00:17.792Z,40.65
2022-08-02T16:02:47.594Z,39.92
2022-08-02T16:05:17.951Z,40.16
2022-08-02T16:07:46.623Z,39.76
2022-08-02T16:10:17.165Z,40.39
2022-08-02T16:12:45.218Z,40.15
2022-08-02T16:15:13.467Z,40.78
2022-08-02T16:17:51.413Z,40.86
2022-08-02T16:20:23.334Z,41.21
2022-08-02T16:22:51.186Z,41.21
2022-08-02T16:25:20.519Z,41.86
2022-08-02T16:28:06.575Z,40.50
2022-08-02T16:30:36.386Z,41.16
2022-08-02T16:33:04.842Z,41.06
2022-08-02T16:35:32.805Z,41.39
2022-08-02T16:38:00.631Z,41.42
2022-08-02T16:40:30.655Z,41.45
2022-08-02T16:42:58.458Z,40.21
2022-08-02T16:45:28.737Z,40.00
2022-08-02T16:48:03.688Z,40.43
2022-08-02T16:50:34.098Z,40.78
2022-08-02T16:53:07.455Z,40.17
2022-08-02T16:55:37.433Z,41.10
2022-08-02T16:58:09.858Z,41.30
2022-08-02T17:00:38.903Z,41.17
2022-08-02T17:03:14.592Z,41.58
2022-08-02T17:05:56.362Z,40.84
2022-08-02T17:08:32.130Z,40.47
2022-08-02T17:11:03.553Z,40.36
2022-08-02T17:13:34.131Z,41.02
2022-08-02T17:16:20.605Z,40.89
2022-08-02T17:18:50.642Z,41.97
2022-08-02T17:21:18.563Z,41.53
2022-08-02T17:24:04.077Z,40.89
2022-08-02T17:26:35.929Z,41.99
2022-08-02T17:29:15.887Z,41.10
2022-08-02T17:32:05.610Z,41.56
2022-08-02T17:34:35.312Z,41.34
2022-08-02T17:37:05.700Z,41.00
2022-08-02T17:39:44.347Z,41.01
2022-08-02T17:42:23.093Z,40.86
2022-08-02T17:44:53.845Z,41.25
2022-08-02T17:47:22.093Z,41.75
2022-08-02T17:49:50.201Z,41.89
2022-08-02T17:52:51.472Z,41.78
2022-08-02T17:55:13.646Z,41.71
2022-08-02T17:57:57.417Z,42.05
2022-08-02T18:00:33.923Z,42.09
2022-08-02T18:03:05.833Z,42.17
2022-08-02T18:05:40.406Z,42.47
2022-08-02T18:08:22.835Z,42.10
2022-08-02T18:10:51.354Z,42.14
2022-08-02T18:13:20.878Z,42.04
2022-08-02T18:15:50.184Z,42.52
2022-08-02T18:18:29.264Z,42.15
2022-08-02T18:20:58.627Z,42.73
2022-08-02T18:23:48.721Z,42.77
2022-08-02T18:26:20.883Z,42.81
2022-08-02T18:28:50.467Z,42.91
2022-08-02T18:31:22.361Z,43.50
2022-08-02T18:33:58.317Z,43.02
2022-08-02T18:36:29.629Z,42.91
2022-08-02T18:38:57.982Z,43.17
2022-08-02T18:41:25.857Z,43.88
2022-08-02T18:43:58.322Z,48.13
2022-08-02T18:46:30.234Z,48.88
2022-08-02T18:48:58.526Z,48.51
2022-08-02T18:51:41.439Z,49.38
2022-08-02T18:54:09.298Z,49.33
2022-08-02T18:56:39.066Z,49.28
2022-08-02T18:59:10.275Z,48.35
2022-08-02T19:01:48.730Z,49.82
2022-08-02T19:04:27.831Z,50.01
2022-08-02T19:07:05.448Z,50.76
2022-08-02T19:09:45.265Z,50.32
2022-08-02T19:12:15.784Z,49.30
2022-08-02T19:14:58.891Z,50.18
2022-08-02T19:17:55.625Z,50.83
2022-08-02T19:20:19.585Z,50.96
2022-08-02T19:22:49.998Z,50.98
2022-08-02T19:25:28.002Z,50.48
2022-08-02T19:27:56.439Z,51.24
2022-08-02T19:30:26.796Z,50.12
2022-08-02T19:33:00.140Z,46.81
2022-08-02T19:35:34.180Z,49.85
2022-08-02T19:38:11.270Z,49.59
2022-08-02T19:40:41.741Z,50.26
2022-08-02T19:44:21.680Z,47.54
2022-08-02T19:46:00.256Z,48.63
2022-08-02T19:48:28.432Z,49.21
2022-08-02T19:50:59.454Z,50.27
2022-08-02T19:53:47.441Z,49.14
2022-08-02T19:56:24.779Z,49.38
2022-08-02T19:58:55.638Z,49.91
2022-08-02T20:01:38.819Z,47.15
2022-08-02T20:04:13.128Z,49.64
2022-08-02T20:06:45.241Z,50.76
2022-08-02T20:09:16.537Z,51.15
2022-08-02T20:11:45.455Z,50.75
2022-08-02T20:14:13.465Z,49.44
2022-08-02T20:16:42.719Z,49.74
2022-08-02T20:19:14.068Z,51.23
2022-08-02T20:21:52.911Z,51.43
2022-08-02T20:24:26.607Z,50.34
2022-08-02T20:26:55.620Z,50.74
2022-08-02T20:29:42.741Z,50.07
2022-08-02T20:32:21.319Z,49.51
2022-08-02T20:34:50.976Z,49.46
2022-08-02T20:38:00.721Z,49.74
2022-08-02T20:40:17.137Z,51.56
2022-08-02T20:42:47.556Z,51.77
2022-08-02T20:45:17.024Z,51.56
2022-08-02T20:47:49.814Z,50.88
2022-08-02T20:50:36.735Z,50.48
2022-08-02T20:53:06.428Z,52.02
2022-08-02T20:55:35.710Z,50.75
2022-08-02T20:58:04.837Z,50.48
2022-08-02T21:00:33.630Z,50.04
2022-08-02T21:03:04.456Z,51.18
2022-08-02T21:05:43.532Z,51.15
2022-08-02T21:08:22.584Z,50.54
2022-08-02T21:10:53.258Z,51.21
2022-08-02T21:13:26.049Z,51.43
2022-08-02T21:18:44.420Z,51.10
2022-08-02T21:21:14.648Z,51.06
2022-08-02T21:23:48.327Z,51.48
2022-08-02T21:26:19.736Z,51.28
2022-08-02T21:28:53.904Z,51.78
2022-08-02T21:31:22.034Z,51.37
2022-08-02T21:33:58.116Z,51.15
2022-08-02T21:36:31.219Z,50.82
2022-08-02T21:39:04.346Z,51.66
2022-08-02T21:41:38.899Z,51.32
2022-08-02T21:44:15.742Z,51.50
2022-08-02T21:46:45.696Z,51.49
2022-08-02T21:49:16.310Z,51.42
2022-08-02T21:51:49.697Z,51.64
2022-08-02T21:54:21.192Z,51.18
2022-08-02T21:56:51.847Z,51.51
2022-08-02T21:59:25.860Z,51.36
2022-08-02T22:01:57.038Z,51.40
2022-08-02T22:04:26.941Z,51.29
2022-08-02T22:06:55.505Z,51.46
2022-08-02T22:09:44.176Z,51.60
2022-08-02T22:12:17.658Z,51.93
2022-08-02T22:14:53.897Z,51.68
2022-08-02T22:17:46.875Z,51.57
2022-08-02T22:20:18.174Z,51.32
2022-08-02T22:22:48.220Z,51.76
2022-08-02T22:25:27.140Z,51.09
2022-08-02T22:28:36.534Z,50.50
2022-08-02T22:30:57.007Z,50.65
2022-08-02T22:33:47.445Z,50.22
2022-08-02T22:36:32.250Z,50.56
2022-08-02T22:39:01.744Z,50.60
2022-08-02T22:42:02.027Z,50.41
2022-08-02T22:44:18.834Z,50.57
2022-08-02T22:46:50.014Z,50.65
2022-08-02T22:49:38.410Z,50.74
2022-08-02T22:52:08.475Z,49.87
2022-08-02T22:54:38.685Z,50.13
2022-08-02T22:57:06.778Z,49.49
2022-08-02T22:59:40.754Z,50.15
2022-08-02T23:02:09.726Z,50.34
2022-08-02T23:04:38.261Z,50.38
2022-08-02T23:07:07.768Z,51.22
2022-08-02T23:09:35.602Z,51.09
2022-08-02T23:12:03.901Z,51.28
2022-08-02T23:14:32.023Z,51.59
2022-08-02T23:17:17.293Z,51.10
2022-08-02T23:19:54.354Z,51.12
2022-08-02T23:22:29.893Z,51.17
2022-08-02T23:25:02.378Z,50.99
2022-08-02T23:27:31.117Z,51.01
2022-08-02T23:29:59.704Z,52.43
2022-08-02T23:32:28.883Z,51.45
2022-08-02T23:34:58.706Z,52.16
2022-08-02T23:37:28.407Z,51.56
2022-08-02T23:40:16.242Z,51.25
2022-08-02T23:43:12.400Z,51.17
2022-08-02T23:45:44.963Z,51.73
2022-08-02T23:48:12.850Z,52.80
2022-08-02T23:50:41.000Z,52.18
2022-08-02T23:53:10.141Z,51.99
2022-08-02T23:55:38.078Z,52.39
2022-08-02T23:58:05.888Z,51.47
